createdAt,value
2023-01-18T00:01:31.177Z,5.47
2023-01-18T00:03:33.576Z,5.28
2023-01-18T00:05:40.002Z,5.55
2023-01-18T00:07:41.560Z,5.80
2023-01-18T00:09:43.287Z,5.75
2023-01-18T00:11:49.087Z,4.30
2023-01-18T00:13:56.877Z,4.38
2023-01-18T00:16:04.558Z,4.85
2023-01-18T00:18:06.459Z,5.38
2023-01-18T00:20:11.662Z,4.10
2023-01-18T00:22:13.312Z,5.25
2023-01-18T00:24:17.700Z,4.35
2023-01-18T00:26:19.651Z,5.13
2023-01-18T00:28:27.209Z,5.40
2023-01-18T00:30:34.492Z,4.68
2023-01-18T00:32:36.117Z,5.43
2023-01-18T00:34:43.784Z,4.45
2023-01-18T00:36:51.292Z,3.90
2023-01-18T00:39:01.899Z,3.92
2023-01-18T00:41:06.326Z,3.92
2023-01-18T00:43:27.287Z,4.93
2023-01-18T00:45:29.295Z,4.97
2023-01-18T00:47:33.449Z,5.32
2023-01-18T00:49:35.019Z,3.72
2023-01-18T00:51:39.278Z,4.00
2023-01-18T00:53:59.475Z,4.95
2023-01-18T00:56:01.065Z,4.07
2023-01-18T00:58:05.436Z,5.00
2023-01-18T01:00:11.805Z,4.72
2023-01-18T01:02:16.906Z,4.97
2023-01-18T01:04:39.762Z,4.00
2023-01-18T01:06:44.410Z,5.38
2023-01-18T01:08:50.360Z,4.60
2023-01-18T01:10:52.851Z,4.13
2023-01-18T01:13:12.939Z,5.38
2023-01-18T01:15:35.531Z,5.20
2023-01-18T01:17:58.385Z,7.20
2023-01-18T01:20:21.471Z,7.43
2023-01-18T01:22:41.389Z,7.97
2023-01-18T01:25:01.199Z,9.25
2023-01-18T01:27:02.734Z,9.15
2023-01-18T01:29:10.086Z,8.43
2023-01-18T01:31:18.318Z,9.15
2023-01-18T01:33:19.863Z,7.55
2023-01-18T01:37:31.680Z,6.60
2023-01-18T01:39:38.990Z,8.30
2023-01-18T01:41:40.549Z,7.55
2023-01-18T01:43:46.790Z,9.07
2023-01-18T01:45:49.677Z,8.32
2023-01-18T01:47:51.835Z,9.82
2023-01-18T01:49:58.637Z,8.90
2023-01-18T01:54:05.992Z,9.52
2023-01-18T01:56:13.077Z,9.65
2023-01-18T01:58:23.462Z,11.15
2023-01-18T02:00:27.798Z,9.63
2023-01-18T02:02:32.518Z,8.00
2023-01-18T02:04:39.674Z,9.38
2023-01-18T02:06:46.028Z,8.57
2023-01-18T02:08:52.415Z,9.73
2023-01-18T02:10:58.718Z,8.57
2023-01-18T02:13:05.937Z,8.75
2023-01-18T02:15:10.243Z,7.32
2023-01-18T02:19:32.758Z,6.95
2023-01-18T02:24:12.508Z,7.22
2023-01-18T02:26:25.583Z,5.30
2023-01-18T02:28:32.732Z,6.38
2023-01-18T02:30:51.294Z,6.38
2023-01-18T02:33:01.495Z,5.30
2023-01-18T02:35:14.515Z,6.32
2023-01-18T02:37:16.060Z,4.30
2023-01-18T02:41:51.803Z,4.43
2023-01-18T02:44:31.987Z,4.20
2023-01-18T02:46:34.095Z,5.03
2023-01-18T02:48:40.680Z,4.82
2023-01-18T02:50:42.108Z,4.32
2023-01-18T02:54:55.301Z,4.03
2023-01-18T02:57:00.152Z,4.53
2023-01-18T02:59:20.447Z,4.13
2023-01-18T03:01:26.881Z,5.05
2023-01-18T03:03:28.721Z,4.55
2023-01-18T03:07:40.324Z,5.05
2023-01-18T03:09:42.586Z,4.68
2023-01-18T03:11:47.096Z,4.43
2023-01-18T03:14:00.454Z,4.82
2023-01-18T03:16:21.648Z,4.20
2023-01-18T03:19:03.095Z,4.72
2023-01-18T03:21:08.459Z,4.78
2023-01-18T03:23:38.774Z,4.70
2023-01-18T03:25:44.598Z,3.83
2023-01-18T03:28:06.232Z,4.00
2023-01-18T03:30:26.633Z,3.78
2023-01-18T03:32:46.850Z,3.75
2023-01-18T03:35:03.463Z,4.18
2023-01-18T03:37:10.087Z,3.35
2023-01-18T03:39:14.144Z,2.80
2023-01-18T03:41:16.420Z,3.28
2023-01-18T03:43:19.999Z,3.92
2023-01-18T03:45:30.612Z,3.20
2023-01-18T03:47:34.934Z,2.78
2023-01-18T03:49:36.515Z,3.30
2023-01-18T03:51:47.474Z,3.35
2023-01-18T03:53:54.547Z,2.60
2023-01-18T03:56:02.640Z,3.45
2023-01-18T03:58:11.042Z,3.33
2023-01-18T04:00:18.403Z,2.80
2023-01-18T04:02:20.461Z,2.85
2023-01-18T04:04:25.019Z,3.45
2023-01-18T04:06:31.185Z,2.97
2023-01-18T04:08:35.542Z,2.70
2023-01-18T04:10:39.918Z,3.60
2023-01-18T04:12:41.413Z,3.10
2023-01-18T04:14:42.839Z,2.97
2023-01-18T04:16:47.157Z,4.38
2023-01-18T04:18:48.601Z,3.33
2023-01-18T04:24:59.619Z,2.65
2023-01-18T04:27:01.666Z,3.10
2023-01-18T04:29:03.471Z,3.42
2023-01-18T04:31:05.110Z,3.13
2023-01-18T04:33:06.605Z,3.25
2023-01-18T04:35:08.239Z,3.03
2023-01-18T04:37:09.701Z,2.97
2023-01-18T04:39:14.624Z,3.05
2023-01-18T04:41:34.812Z,2.58
2023-01-18T04:43:38.957Z,2.20
2023-01-18T04:45:43.340Z,2.22
2023-01-18T04:47:45.059Z,2.45
2023-01-18T04:49:46.515Z,2.28
2023-01-18T04:51:50.609Z,2.22
2023-01-18T04:53:52.269Z,2.47
2023-01-18T04:55:53.786Z,2.00
2023-01-18T05:00:20.279Z,1.95
2023-01-18T05:02:35.626Z,1.83
2023-01-18T05:04:48.970Z,2.45
2023-01-18T05:06:59.295Z,1.90
2023-01-18T05:09:09.718Z,2.78
2023-01-18T05:11:20.540Z,2.92
2023-01-18T05:13:34.118Z,3.42
2023-01-18T05:15:46.986Z,3.35
2023-01-18T05:17:58.597Z,3.33
2023-01-18T05:20:15.959Z,3.38
2023-01-18T05:22:30.569Z,3.25
2023-01-18T05:24:36.297Z,3.35
2023-01-18T05:26:45.333Z,2.95
2023-01-18T05:28:49.513Z,3.20
2023-01-18T05:30:51.436Z,3.85
2023-01-18T05:32:55.819Z,3.20
2023-01-18T05:35:00.133Z,3.83
2023-01-18T05:37:01.604Z,3.05
2023-01-18T05:39:03.075Z,2.67
2023-01-18T05:41:07.120Z,2.80
2023-01-18T05:43:08.540Z,2.80
2023-01-18T05:45:12.624Z,2.60
2023-01-18T05:47:14.165Z,2.38
2023-01-18T05:49:15.711Z,3.28
2023-01-18T05:51:36.149Z,2.13
2023-01-18T05:53:37.908Z,2.30
2023-01-18T05:55:42.427Z,2.10
2023-01-18T05:57:43.883Z,1.63
2023-01-18T05:59:48.151Z,2.65
2023-01-18T06:01:49.627Z,2.17
2023-01-18T06:03:51.075Z,2.38
2023-01-18T06:05:52.949Z,2.47
2023-01-18T06:07:57.005Z,1.80
2023-01-18T06:09:59.107Z,2.08
2023-01-18T06:12:03.512Z,2.55
2023-01-18T06:14:04.965Z,3.20
2023-01-18T06:16:06.516Z,2.42
2023-01-18T06:18:10.830Z,2.47
2023-01-18T06:20:15.496Z,2.72
2023-01-18T06:22:16.907Z,2.50
2023-01-18T06:24:20.903Z,2.50
2023-01-18T06:26:23.844Z,2.25
2023-01-18T06:28:26.094Z,1.90
2023-01-18T06:30:27.591Z,1.63
2023-01-18T06:32:32.106Z,1.80
2023-01-18T06:34:33.832Z,1.83
2023-01-18T06:36:38.865Z,1.67
2023-01-18T06:38:41.552Z,1.90
2023-01-18T06:40:45.632Z,2.67
2023-01-18T06:42:49.915Z,1.52
2023-01-18T06:44:54.156Z,1.80
2023-01-18T06:49:02.562Z,2.17
2023-01-18T06:51:06.919Z,2.03
2023-01-18T06:53:08.372Z,1.98
2023-01-18T06:55:13.292Z,2.10
2023-01-18T06:57:17.432Z,2.15
2023-01-18T06:59:19.055Z,2.53
2023-01-18T07:01:21.071Z,1.95
2023-01-18T07:03:25.999Z,2.33
2023-01-18T07:05:30.178Z,1.60
2023-01-18T07:09:38.563Z,2.38
2023-01-18T07:11:43.274Z,2.70
2023-01-18T07:13:49.529Z,2.03
2023-01-18T07:15:56.571Z,2.65
2023-01-18T07:18:00.967Z,2.17
2023-01-18T07:20:05.632Z,1.60
2023-01-18T07:22:07.080Z,1.55
2023-01-18T07:24:11.396Z,2.05
2023-01-18T07:26:31.751Z,1.52
2023-01-18T07:28:33.634Z,1.67
2023-01-18T07:30:37.989Z,1.92
2023-01-18T07:32:39.562Z,1.50
2023-01-18T07:34:41.048Z,2.22
2023-01-18T07:36:45.448Z,1.77
2023-01-18T07:40:51.215Z,1.67
2023-01-18T07:42:58.999Z,1.98
2023-01-18T07:45:03.635Z,2.22
2023-01-18T07:47:05.176Z,1.90
2023-01-18T07:49:09.557Z,1.67
2023-01-18T07:51:11.567Z,1.77
2023-01-18T07:53:15.913Z,1.83
2023-01-18T07:55:21.805Z,1.50
2023-01-18T07:57:23.236Z,1.77
2023-01-18T07:59:24.790Z,1.80
2023-01-18T08:01:32.568Z,1.60
2023-01-18T08:03:37.506Z,2.20
2023-01-18T08:05:49.640Z,1.83
2023-01-18T08:08:02.564Z,1.88
2023-01-18T08:10:14.544Z,1.60
2023-01-18T08:12:21.991Z,1.98
2023-01-18T08:14:45.783Z,1.85
2023-01-18T08:16:53.465Z,1.35
2023-01-18T08:19:03.773Z,1.77
2023-01-18T08:21:15.575Z,1.40
2023-01-18T08:23:22.160Z,1.27
2023-01-18T08:25:38.099Z,1.70
2023-01-18T08:27:45.901Z,1.10
2023-01-18T08:29:56.548Z,1.50
2023-01-18T08:32:10.414Z,1.63
2023-01-18T08:34:19.804Z,1.98
2023-01-18T08:36:24.398Z,1.50
2023-01-18T08:38:28.504Z,1.20
2023-01-18T08:40:30.419Z,1.20
2023-01-18T08:42:31.845Z,1.33
2023-01-18T08:44:33.344Z,1.50
2023-01-18T08:46:37.819Z,1.35
2023-01-18T08:48:39.340Z,1.48
2023-01-18T08:50:47.193Z,1.20
2023-01-18T08:53:07.483Z,1.50
2023-01-18T08:55:27.895Z,1.77
2023-01-18T08:57:33.542Z,1.85
2023-01-18T08:59:35.040Z,1.70
2023-01-18T09:01:54.905Z,1.38
2023-01-18T09:03:57.649Z,1.60
2023-01-18T09:06:00.868Z,2.08
2023-01-18T09:08:02.924Z,2.17
2023-01-18T09:10:09.025Z,2.17
2023-01-18T09:12:16.150Z,1.60
2023-01-18T09:14:36.382Z,1.88
2023-01-18T09:16:37.953Z,3.03
2023-01-18T09:18:39.754Z,2.10
2023-01-18T09:20:43.425Z,2.10
2023-01-18T09:23:04.822Z,1.20
2023-01-18T09:25:12.360Z,0.80
2023-01-18T09:27:14.021Z,1.10
2023-01-18T09:29:16.214Z,0.90
2023-01-18T09:31:18.436Z,1.20
2023-01-18T09:33:19.882Z,0.65
2023-01-18T09:35:21.539Z,0.70
2023-01-18T09:37:25.692Z,0.50
2023-01-18T09:41:42.871Z,0.75
2023-01-18T09:43:50.991Z,0.60
2023-01-18T09:45:53.658Z,0.70
2023-01-18T09:48:00.137Z,0.73
2023-01-18T09:50:14.594Z,1.00
2023-01-18T09:52:30.438Z,1.38
2023-01-18T09:54:40.145Z,1.58
2023-01-18T09:56:44.695Z,1.83
2023-01-18T09:59:05.028Z,1.50
2023-01-18T10:01:21.509Z,1.70
2023-01-18T10:03:32.857Z,2.25
2023-01-18T10:05:40.595Z,1.52
2023-01-18T10:07:55.050Z,1.80
2023-01-18T10:10:00.687Z,1.65
2023-01-18T10:12:21.047Z,2.30
2023-01-18T10:14:28.623Z,1.40
2023-01-18T10:16:30.899Z,1.05
2023-01-18T10:18:32.466Z,1.55
2023-01-18T10:20:46.391Z,1.00
2023-01-18T10:22:52.992Z,1.20
2023-01-18T10:25:05.177Z,1.05
2023-01-18T10:27:15.943Z,1.00
2023-01-18T10:29:45.845Z,0.90
2023-01-18T10:31:57.452Z,1.17
2023-01-18T10:34:02.780Z,1.00
2023-01-18T10:36:27.128Z,0.77
2023-01-18T10:38:34.788Z,1.02
2023-01-18T10:40:39.930Z,0.90
2023-01-18T10:42:45.706Z,0.60
2023-01-18T10:44:47.847Z,0.70
2023-01-18T10:46:49.420Z,0.88
2023-01-18T10:48:52.429Z,1.17
2023-01-18T10:50:56.470Z,1.42
2023-01-18T10:53:20.369Z,1.17
2023-01-18T10:55:24.685Z,1.25
2023-01-18T10:57:48.833Z,1.83
2023-01-18T10:59:53.951Z,1.58
2023-01-18T11:01:57.017Z,1.45
2023-01-18T11:04:04.763Z,1.77
2023-01-18T11:06:25.554Z,1.40
2023-01-18T11:08:33.428Z,1.45
2023-01-18T11:10:47.618Z,0.80
2023-01-18T11:12:59.837Z,1.00
2023-01-18T11:15:17.748Z,1.00
2023-01-18T11:17:21.265Z,1.05
2023-01-18T11:19:27.798Z,0.80
2023-01-18T11:21:52.569Z,1.02
2023-01-18T11:23:56.243Z,0.77
2023-01-18T11:26:11.360Z,1.35
2023-01-18T11:28:18.793Z,1.65
2023-01-18T11:30:27.365Z,1.10
2023-01-18T11:32:50.015Z,1.40
2023-01-18T11:35:01.642Z,1.27
2023-01-18T11:37:40.045Z,1.38
2023-01-18T11:39:46.272Z,1.17
2023-01-18T11:41:50.363Z,1.25
2023-01-18T11:44:01.544Z,1.40
2023-01-18T11:46:27.602Z,1.65
2023-01-18T11:48:32.912Z,1.70
2023-01-18T11:50:59.215Z,1.63
2023-01-18T11:53:24.915Z,1.50
2023-01-18T11:55:35.234Z,2.00
2023-01-18T11:57:39.689Z,1.70
2023-01-18T11:59:46.091Z,1.52
2023-01-18T12:02:05.982Z,1.50
2023-01-18T12:04:46.204Z,1.55
2023-01-18T12:07:03.315Z,1.77
2023-01-18T12:09:32.413Z,1.40
2023-01-18T12:11:46.684Z,1.20
2023-01-18T12:14:27.215Z,1.25
2023-01-18T12:16:56.300Z,1.00
2023-01-18T12:19:22.738Z,1.10
2023-01-18T12:21:53.715Z,1.60
2023-01-18T12:24:04.283Z,1.33
2023-01-18T12:26:15.120Z,0.90
2023-01-18T12:28:36.933Z,1.33
2023-01-18T12:30:47.501Z,0.90
2023-01-18T12:33:42.553Z,0.93
2023-01-18T12:35:47.761Z,0.73
2023-01-18T12:37:49.278Z,0.73
2023-01-18T12:39:54.111Z,0.70
2023-01-18T12:42:22.871Z,0.88
2023-01-18T12:44:55.986Z,0.82
2023-01-18T12:47:06.524Z,0.63
2023-01-18T12:49:11.670Z,0.70
2023-01-18T12:51:21.310Z,0.98
2023-01-18T12:53:32.468Z,0.60
2023-01-18T12:55:41.188Z,0.73
2023-01-18T12:57:45.699Z,0.70
2023-01-18T13:00:08.150Z,0.60
2023-01-18T13:02:28.488Z,0.60
2023-01-18T13:04:33.462Z,0.70
2023-01-18T13:06:35.995Z,1.00
2023-01-18T13:08:55.687Z,0.60
2023-01-18T13:11:02.894Z,0.70
2023-01-18T13:13:06.116Z,0.70
2023-01-18T13:15:16.168Z,0.70
2023-01-18T13:17:28.554Z,0.70
2023-01-18T13:19:42.967Z,0.52
2023-01-18T13:21:56.435Z,0.50
2023-01-18T13:24:22.636Z,0.50
2023-01-18T13:26:30.917Z,0.30
2023-01-18T13:28:38.602Z,0.57
2023-01-18T13:30:46.303Z,0.60
2023-01-18T13:32:53.796Z,0.63
2023-01-18T13:35:20.717Z,0.30
2023-01-18T13:37:45.356Z,0.55
2023-01-18T13:39:53.015Z,0.38
2023-01-18T13:42:03.888Z,0.50
2023-01-18T13:44:30.376Z,0.63
2023-01-18T13:46:35.271Z,0.60
2023-01-18T13:48:43.349Z,0.65
2023-01-18T13:50:46.921Z,0.70
2023-01-18T13:53:09.915Z,0.55
2023-01-18T13:55:26.146Z,0.57
2023-01-18T13:57:32.047Z,0.60
2023-01-18T13:59:47.595Z,0.60
2023-01-18T14:01:51.063Z,0.82
2023-01-18T14:03:53.449Z,0.43
2023-01-18T14:05:57.178Z,0.38
2023-01-18T14:08:05.761Z,0.60
2023-01-18T14:10:39.237Z,0.50
2023-01-18T14:12:53.669Z,0.30
2023-01-18T14:15:04.046Z,0.70
2023-01-18T14:17:19.106Z,0.50
2023-01-18T14:19:53.480Z,0.52
2023-01-18T14:22:33.442Z,0.60
2023-01-18T14:24:55.114Z,1.08
2023-01-18T14:27:05.659Z,0.50
2023-01-18T14:31:31.018Z,0.63
2023-01-18T14:33:42.306Z,0.50
2023-01-18T14:35:58.699Z,0.45
2023-01-18T14:38:19.199Z,0.45
2023-01-18T14:40:31.368Z,0.65
2023-01-18T14:43:00.738Z,0.70
2023-01-18T14:45:06.947Z,0.60
2023-01-18T14:47:24.228Z,0.70
2023-01-18T14:49:38.007Z,0.50
2023-01-18T14:51:45.928Z,0.50
2023-01-18T14:53:48.448Z,0.60
2023-01-18T14:56:03.700Z,0.50
2023-01-18T14:58:13.165Z,0.57
2023-01-18T15:00:16.412Z,0.60
2023-01-18T15:02:27.114Z,0.22
2023-01-18T15:04:38.828Z,0.47
2023-01-18T15:06:43.742Z,0.47
2023-01-18T15:08:47.059Z,0.40
2023-01-18T15:11:07.442Z,0.90
2023-01-18T15:13:17.345Z,0.52
2023-01-18T15:15:33.179Z,0.32
2023-01-18T15:17:40.662Z,0.50
2023-01-18T15:19:44.375Z,0.70
2023-01-18T15:21:51.802Z,0.60
2023-01-18T15:24:01.929Z,0.82
2023-01-18T15:26:03.446Z,0.60
2023-01-18T15:28:29.495Z,0.90
2023-01-18T15:30:33.737Z,0.73
2023-01-18T15:32:41.090Z,0.70
2023-01-18T15:34:43.907Z,0.60
2023-01-18T15:36:51.252Z,0.98
2023-01-18T15:38:52.963Z,0.95
2023-01-18T15:41:04.138Z,0.60
2023-01-18T15:43:25.284Z,0.60
2023-01-18T15:45:29.149Z,0.50
2023-01-18T15:47:39.155Z,0.50
2023-01-18T15:49:44.643Z,1.10
2023-01-18T15:52:04.955Z,0.60
2023-01-18T15:54:20.891Z,0.50
2023-01-18T15:56:30.616Z,0.80
2023-01-18T15:58:56.886Z,1.10
2023-01-18T16:01:07.783Z,0.90
2023-01-18T16:03:22.073Z,0.95
2023-01-18T16:05:29.611Z,1.20
2023-01-18T16:07:36.236Z,0.80
2023-01-18T16:10:15.450Z,1.30
2023-01-18T16:12:32.875Z,1.58
2023-01-18T16:14:38.557Z,1.52
2023-01-18T16:16:41.594Z,1.38
2023-01-18T16:18:51.313Z,1.08
2023-01-18T16:20:54.554Z,1.63
2023-01-18T16:23:00.473Z,1.30
2023-01-18T16:25:08.481Z,1.38
2023-01-18T16:27:11.630Z,1.02
2023-01-18T16:29:19.143Z,1.00
2023-01-18T16:31:41.207Z,0.80
2023-01-18T16:33:42.762Z,1.02
2023-01-18T16:35:46.869Z,0.70
2023-01-18T16:37:57.918Z,0.88
2023-01-18T16:39:59.828Z,0.80
2023-01-18T16:42:01.436Z,0.70
2023-01-18T16:44:06.075Z,0.90
2023-01-18T16:46:13.458Z,0.68
2023-01-18T16:48:22.678Z,0.70
2023-01-18T16:50:24.451Z,0.70
2023-01-18T16:52:31.675Z,0.50
2023-01-18T16:54:39.581Z,0.88
2023-01-18T16:56:47.643Z,0.60
2023-01-18T16:58:49.289Z,0.52
2023-01-18T17:00:57.846Z,0.35
2023-01-18T17:03:02.176Z,0.50
2023-01-18T17:05:03.661Z,1.90
2023-01-18T17:07:10.955Z,1.42
2023-01-18T17:09:23.195Z,1.50
2023-01-18T17:11:30.679Z,1.30
2023-01-18T17:13:39.288Z,1.67
2023-01-18T17:15:45.502Z,1.80
2023-01-18T17:17:52.104Z,2.58
2023-01-18T17:19:58.315Z,1.67
2023-01-18T17:22:22.631Z,1.58
2023-01-18T17:24:31.914Z,1.60
2023-01-18T17:26:50.801Z,1.48
2023-01-18T17:28:56.452Z,1.42
2023-01-18T17:31:02.833Z,1.20
2023-01-18T17:33:05.306Z,1.20
2023-01-18T17:35:09.196Z,0.82
2023-01-18T17:37:30.536Z,0.70
2023-01-18T17:39:43.887Z,0.95
2023-01-18T17:41:59.145Z,1.55
2023-01-18T17:44:11.743Z,1.08
2023-01-18T17:46:18.711Z,1.38
2023-01-18T17:48:25.318Z,2.17
2023-01-18T17:50:30.391Z,2.20
2023-01-18T17:52:39.007Z,1.65
2023-01-18T17:54:59.445Z,1.35
2023-01-18T18:03:55.532Z,1.35
2023-01-18T18:06:01.188Z,1.23
2023-01-18T18:08:08.980Z,0.85
2023-01-18T18:10:29.533Z,1.17
2023-01-18T18:12:32.667Z,0.90
2023-01-18T18:14:37.761Z,1.02
2023-01-18T18:16:45.332Z,1.00
2023-01-18T18:18:52.660Z,0.93
2023-01-18T18:20:58.045Z,0.90
2023-01-18T18:23:00.078Z,0.90
2023-01-18T18:25:20.175Z,1.38
2023-01-18T18:27:26.640Z,1.52
2023-01-18T18:29:32.591Z,1.73
2023-01-18T18:31:34.244Z,2.72
2023-01-18T18:33:35.859Z,2.30
2023-01-18T18:37:44.837Z,1.20
2023-01-18T18:39:52.084Z,1.17
2023-01-18T18:41:59.383Z,1.13
2023-01-18T18:44:19.341Z,0.98
2023-01-18T18:46:21.053Z,0.95
2023-01-18T18:48:22.926Z,1.17
2023-01-18T18:50:24.469Z,0.88
2023-01-18T18:52:25.967Z,1.00
2023-01-18T18:54:30.161Z,0.77
2023-01-18T18:56:32.039Z,1.27
2023-01-18T18:58:36.779Z,0.90
2023-01-18T19:00:38.594Z,0.90
2023-01-18T19:02:43.233Z,0.70
2023-01-18T19:04:48.027Z,1.02
2023-01-18T19:06:49.491Z,0.98
2023-01-18T19:08:54.649Z,0.90
2023-01-18T19:10:57.240Z,0.82
2023-01-18T19:12:59.539Z,0.65
2023-01-18T19:15:01.425Z,0.65
2023-01-18T19:17:06.021Z,0.70
2023-01-18T19:19:13.664Z,0.77
2023-01-18T19:21:15.255Z,0.50
2023-01-18T19:23:16.737Z,0.82
2023-01-18T19:25:19.024Z,0.60
2023-01-18T19:27:24.760Z,0.82
2023-01-18T19:29:26.274Z,1.30
2023-01-18T19:31:33.916Z,1.00
2023-01-18T19:33:36.844Z,1.40
2023-01-18T19:35:57.556Z,1.10
2023-01-18T19:38:00.966Z,1.25
2023-01-18T19:40:02.544Z,1.20
2023-01-18T19:42:22.824Z,1.38
2023-01-18T19:46:30.587Z,1.30
2023-01-18T19:48:33.152Z,1.17
2023-01-18T19:50:40.643Z,1.45
2023-01-18T19:52:42.169Z,2.13
2023-01-18T19:54:50.081Z,1.65
2023-01-18T19:56:57.437Z,1.40
2023-01-18T19:58:59.225Z,2.05
2023-01-18T20:01:08.150Z,1.48
2023-01-18T20:03:13.486Z,2.60
2023-01-18T20:05:18.462Z,1.63
2023-01-18T20:07:22.924Z,2.03
2023-01-18T20:09:42.868Z,1.70
2023-01-18T20:11:48.452Z,1.55
2023-01-18T20:13:56.196Z,2.50
2023-01-18T20:16:00.839Z,2.35
2023-01-18T20:18:20.905Z,1.95
2023-01-18T20:20:32.848Z,1.70
2023-01-18T20:22:37.096Z,1.73
2023-01-18T20:24:46.991Z,1.30
2023-01-18T20:26:50.524Z,1.33
2023-01-18T20:28:54.740Z,0.90
2023-01-18T20:31:07.303Z,0.98
2023-01-18T20:33:10.784Z,1.05
2023-01-18T20:35:15.063Z,0.85
2023-01-18T20:37:17.735Z,0.88
2023-01-18T20:39:21.640Z,1.02
2023-01-18T20:41:30.968Z,1.20
2023-01-18T20:43:34.777Z,0.95
2023-01-18T20:45:39.191Z,2.45
2023-01-18T20:49:51.542Z,1.30
2023-01-18T20:52:00.621Z,2.13
2023-01-18T20:54:02.980Z,1.80
2023-01-18T20:56:11.941Z,1.73
2023-01-18T20:58:43.897Z,1.70
2023-01-18T21:01:08.312Z,1.92
2023-01-18T21:03:29.373Z,3.13
2023-01-18T21:05:30.867Z,3.53
2023-01-18T21:07:35.505Z,2.28
2023-01-18T21:09:39.681Z,1.83
2023-01-18T21:12:00.046Z,2.25
2023-01-18T21:16:11.486Z,1.98
2023-01-18T21:18:19.336Z,1.42
2023-01-18T21:20:23.570Z,1.90
2023-01-18T21:22:25.195Z,2.03
2023-01-18T21:24:26.754Z,1.40
2023-01-18T21:26:28.525Z,2.33
2023-01-18T21:28:36.546Z,1.85
2023-01-18T21:30:38.119Z,2.47
2023-01-18T21:32:45.675Z,1.35
2023-01-18T21:34:50.531Z,2.85
2023-01-18T21:36:52.474Z,2.60
2023-01-18T21:38:56.674Z,2.25
2023-01-18T21:41:35.368Z,3.53
2023-01-18T21:44:01.569Z,3.58
2023-01-18T21:46:22.218Z,1.85
2023-01-18T21:48:25.176Z,2.13
2023-01-18T21:50:51.304Z,1.73
2023-01-18T21:53:11.447Z,1.90
2023-01-18T21:55:13.016Z,3.17
2023-01-18T21:57:17.645Z,2.83
2023-01-18T21:59:24.904Z,3.47
2023-01-18T22:01:38.626Z,2.97
2023-01-18T22:04:05.014Z,2.92
2023-01-18T22:06:06.645Z,2.67
2023-01-18T22:08:09.570Z,2.58
2023-01-18T22:10:11.090Z,2.50
2023-01-18T22:12:12.870Z,3.05
2023-01-18T22:14:14.504Z,2.95
2023-01-18T22:16:22.619Z,2.67
2023-01-18T22:18:24.391Z,3.33
2023-01-18T22:20:30.336Z,3.33
2023-01-18T22:22:38.212Z,2.67
2023-01-18T22:24:45.749Z,2.83
2023-01-18T22:27:06.519Z,2.33
2023-01-18T22:29:08.554Z,2.55
2023-01-18T22:31:16.311Z,1.88
2023-01-18T22:33:20.502Z,1.80
2023-01-18T22:35:22.156Z,1.60
2023-01-18T22:37:29.611Z,1.42
2023-01-18T22:39:31.358Z,2.28
2023-01-18T22:41:35.597Z,2.28
2023-01-18T22:43:56.176Z,3.70
2023-01-18T22:45:58.114Z,2.83
2023-01-18T22:48:02.863Z,3.38
2023-01-18T22:50:07.633Z,3.33
2023-01-18T22:52:09.151Z,2.20
2023-01-18T22:54:16.670Z,2.13
2023-01-18T22:56:25.026Z,2.03
2023-01-18T22:58:29.520Z,1.67
2023-01-18T23:00:31.996Z,2.08
2023-01-18T23:02:36.608Z,2.60
2023-01-18T23:04:38.113Z,3.25
2023-01-18T23:06:46.824Z,3.08
2023-01-18T23:08:48.909Z,3.15
2023-01-18T23:10:57.749Z,3.45
2023-01-18T23:13:02.111Z,2.95
2023-01-18T23:15:22.362Z,3.28
2023-01-18T23:17:43.736Z,3.20
2023-01-18T23:19:48.205Z,2.75
2023-01-18T23:21:53.447Z,2.88
2023-01-18T23:24:00.728Z,3.10
2023-01-18T23:26:08.004Z,2.80
2023-01-18T23:28:09.473Z,2.45
2023-01-18T23:30:14.121Z,3.38
2023-01-18T23:32:17.703Z,3.65
2023-01-18T23:34:22.705Z,3.42
2023-01-18T23:36:24.450Z,3.40
2023-01-18T23:38:26.016Z,3.00
2023-01-18T23:40:48.850Z,3.28
2023-01-18T23:43:11.464Z,2.28
2023-01-18T23:45:31.744Z,3.88
2023-01-18T23:47:55.224Z,3.13
2023-01-18T23:50:15.785Z,4.47
2023-01-18T23:52:39.143Z,3.72
2023-01-18T23:54:49.462Z,3.25
2023-01-18T23:57:09.511Z,4.85
2023-01-18T23:59:11.488Z,4.00
